createdAt,value
2022-10-05T00:01:11.303Z,77.87
2022-10-05T00:04:21.990Z,78.04
2022-10-05T00:07:25.031Z,77.67
2022-10-05T00:10:29.330Z,77.73
2022-10-05T00:13:31.835Z,77.65
2022-10-05T00:16:35.003Z,77.59
2022-10-05T00:19:38.769Z,77.64
2022-10-05T00:22:41.638Z,77.70
2022-10-05T00:25:44.268Z,77.75
2022-10-05T00:28:47.601Z,77.93
2022-10-05T00:31:50.537Z,77.96
2022-10-05T00:34:53.675Z,78.41
2022-10-05T00:37:57.133Z,78.13
2022-10-05T00:41:13.669Z,78.20
2022-10-05T00:44:43.441Z,78.06
2022-10-05T00:48:01.580Z,78.51
2022-10-05T00:51:26.287Z,78.78
2022-10-05T00:54:36.733Z,79.31
2022-10-05T00:58:21.563Z,79.58
2022-10-05T01:01:33.203Z,79.65
2022-10-05T01:04:44.634Z,79.45
2022-10-05T01:07:47.503Z,79.36
2022-10-05T01:11:19.151Z,79.29
2022-10-05T01:14:32.709Z,79.13
2022-10-05T01:17:35.162Z,79.09
2022-10-05T01:21:03.403Z,79.32
2022-10-05T01:24:24.235Z,79.24
2022-10-05T01:27:55.951Z,78.82
2022-10-05T01:31:01.475Z,79.77
2022-10-05T01:34:13.785Z,79.36
2022-10-05T01:37:30.361Z,79.60
2022-10-05T01:40:45.374Z,80.21
2022-10-05T01:43:52.583Z,79.94
2022-10-05T01:47:19.979Z,79.82
2022-10-05T01:50:42.956Z,79.50
2022-10-05T01:54:12.997Z,79.85
2022-10-05T01:57:27.693Z,79.67
2022-10-05T02:00:33.718Z,79.74
2022-10-05T02:03:50.200Z,79.46
2022-10-05T02:06:53.305Z,79.45
2022-10-05T02:10:01.988Z,79.45
2022-10-05T02:13:11.846Z,79.24
2022-10-05T02:16:17.940Z,79.15
2022-10-05T02:19:27.700Z,79.05
2022-10-05T02:22:49.759Z,78.89
2022-10-05T02:25:54.429Z,78.88
2022-10-05T02:29:03.480Z,79.04
2022-10-05T02:32:17.272Z,78.96
2022-10-05T02:35:21.880Z,78.95
2022-10-05T02:38:34.258Z,78.91
2022-10-05T02:42:02.269Z,79.07
2022-10-05T02:45:10.935Z,79.01
2022-10-05T02:48:19.647Z,78.93
2022-10-05T02:51:27.693Z,79.11
2022-10-05T02:54:58.774Z,79.29
2022-10-05T02:58:18.500Z,79.35
2022-10-05T03:01:30.719Z,79.31
2022-10-05T03:04:54.967Z,79.63
2022-10-05T03:08:06.032Z,79.77
2022-10-05T03:11:27.991Z,79.43
2022-10-05T03:14:38.335Z,79.73
2022-10-05T03:17:58.933Z,79.59
2022-10-05T03:21:07.678Z,79.89
2022-10-05T03:24:10.206Z,79.96
2022-10-05T03:27:31.529Z,79.98
2022-10-05T03:30:45.519Z,79.95
2022-10-05T03:33:56.512Z,80.11
2022-10-05T03:37:03.340Z,80.42
2022-10-05T03:40:26.257Z,81.01
2022-10-05T03:43:57.327Z,80.71
2022-10-05T03:47:00.299Z,80.47
2022-10-05T03:50:24.869Z,80.15
2022-10-05T03:53:30.385Z,80.13
2022-10-05T03:56:43.848Z,80.13
2022-10-05T03:59:46.910Z,80.04
2022-10-05T04:03:10.347Z,80.10
2022-10-05T04:06:21.155Z,80.18
2022-10-05T04:09:39.995Z,80.30
2022-10-05T04:12:48.027Z,80.37
2022-10-05T04:16:14.233Z,80.53
2022-10-05T04:19:23.558Z,80.46
2022-10-05T04:22:32.362Z,80.54
2022-10-05T04:25:45.465Z,80.63
2022-10-05T04:28:58.348Z,80.23
2022-10-05T04:32:16.352Z,80.36
2022-10-05T04:35:48.281Z,80.12
2022-10-05T04:39:00.817Z,79.84
2022-10-05T04:42:25.621Z,79.79
2022-10-05T04:45:45.522Z,80.17
2022-10-05T04:49:11.638Z,80.27
2022-10-05T04:52:42.093Z,80.20
2022-10-05T04:56:02.038Z,80.20
2022-10-05T04:59:43.152Z,80.26
2022-10-05T05:03:15.645Z,80.30
2022-10-05T05:06:30.878Z,80.43
2022-10-05T05:09:59.628Z,80.41
2022-10-05T05:13:28.243Z,80.44
2022-10-05T05:16:40.607Z,80.87
2022-10-05T05:19:55.872Z,81.52
2022-10-05T05:23:21.256Z,81.23
2022-10-05T05:26:29.614Z,81.35
2022-10-05T05:30:04.642Z,81.55
2022-10-05T05:33:23.752Z,81.77
2022-10-05T05:36:46.071Z,82.09
2022-10-05T05:39:49.116Z,82.41
2022-10-05T05:42:59.631Z,82.37
2022-10-05T05:46:15.922Z,82.72
2022-10-05T05:49:27.827Z,83.00
2022-10-05T05:52:34.724Z,83.30
2022-10-05T05:55:42.762Z,83.80
2022-10-05T05:58:51.869Z,83.79
2022-10-05T06:02:11.571Z,84.11
2022-10-05T06:05:23.754Z,84.49
2022-10-05T06:08:49.770Z,85.18
2022-10-05T06:12:00.963Z,85.78
2022-10-05T06:15:24.599Z,86.91
2022-10-05T06:18:28.594Z,88.16
2022-10-05T06:21:58.095Z,88.62
2022-10-05T06:25:06.911Z,88.68
2022-10-05T06:28:11.222Z,88.69
2022-10-05T06:31:20.975Z,88.50
2022-10-05T06:34:38.136Z,89.47
2022-10-05T06:37:59.307Z,89.38
2022-10-05T06:41:05.033Z,90.59
2022-10-05T06:44:16.314Z,90.72
2022-10-05T06:47:43.872Z,90.79
2022-10-05T06:50:52.903Z,91.08
2022-10-05T06:54:23.159Z,90.40
2022-10-05T06:57:49.762Z,90.24
2022-10-05T07:01:00.193Z,90.71
2022-10-05T07:04:24.817Z,89.93
2022-10-05T07:08:01.413Z,90.40
2022-10-05T07:11:07.233Z,89.73
2022-10-05T07:14:14.415Z,90.37
2022-10-05T07:17:23.367Z,89.80
2022-10-05T07:20:44.491Z,89.53
2022-10-05T07:23:52.933Z,89.65
2022-10-05T07:27:13.991Z,89.76
2022-10-05T07:30:17.205Z,88.98
2022-10-05T07:33:25.920Z,88.39
2022-10-05T07:36:56.819Z,88.10
2022-10-05T07:40:08.706Z,87.79
2022-10-05T07:43:17.853Z,87.38
2022-10-05T07:46:43.631Z,87.44
2022-10-05T07:50:04.210Z,86.77
2022-10-05T07:53:22.621Z,85.68
2022-10-05T07:56:36.929Z,83.46
2022-10-05T08:00:32.560Z,83.29
2022-10-05T08:03:54.823Z,82.03
2022-10-05T08:07:00.929Z,80.47
2022-10-05T08:10:55.259Z,79.35
2022-10-05T08:14:16.685Z,79.00
2022-10-05T08:17:29.685Z,78.36
2022-10-05T08:20:40.059Z,77.25
2022-10-05T08:23:50.834Z,76.28
2022-10-05T08:27:10.223Z,75.55
2022-10-05T08:30:15.373Z,74.53
2022-10-05T08:33:19.174Z,74.83
2022-10-05T08:36:39.209Z,74.15
2022-10-05T08:40:10.648Z,73.89
2022-10-05T08:43:35.439Z,73.23
2022-10-05T08:46:47.087Z,72.20
2022-10-05T08:50:27.964Z,71.20
2022-10-05T08:54:11.737Z,70.29
2022-10-05T08:57:40.480Z,69.02
2022-10-05T09:01:03.227Z,68.27
2022-10-05T09:08:20.998Z,68.27
2022-10-05T09:11:36.794Z,66.34
2022-10-05T09:15:24.435Z,65.72
2022-10-05T09:18:41.306Z,65.33
2022-10-05T09:22:22.730Z,62.82
2022-10-05T09:25:40.528Z,63.86
2022-10-05T09:28:48.936Z,64.31
2022-10-05T09:32:29.568Z,64.38
2022-10-05T09:36:07.446Z,63.52
2022-10-05T09:39:15.395Z,62.05
2022-10-05T09:42:24.283Z,61.87
2022-10-05T09:45:54.450Z,61.41
2022-10-05T09:49:15.172Z,60.30
2022-10-05T09:52:33.832Z,58.90
2022-10-05T09:56:09.921Z,59.72
2022-10-05T10:00:09.742Z,59.37
2022-10-05T10:03:43.021Z,59.43
2022-10-05T10:07:05.055Z,60.34
2022-10-05T10:10:29.392Z,59.83
2022-10-05T10:14:02.471Z,56.83
2022-10-05T10:17:10.538Z,58.23
2022-10-05T10:20:25.817Z,58.58
2022-10-05T10:24:09.782Z,56.70
2022-10-05T10:27:52.427Z,56.91
2022-10-05T10:31:35.556Z,55.59
2022-10-05T10:35:19.991Z,55.15
2022-10-05T10:38:58.425Z,57.18
2022-10-05T10:42:10.591Z,53.52
2022-10-05T10:45:20.127Z,56.21
2022-10-05T10:48:28.907Z,56.90
2022-10-05T10:51:37.022Z,56.40
2022-10-05T10:54:57.511Z,55.89
2022-10-05T10:58:21.467Z,55.43
2022-10-05T11:01:34.796Z,55.07
2022-10-05T11:05:02.945Z,55.94
2022-10-05T11:08:08.836Z,55.79
2022-10-05T11:11:30.977Z,55.71
2022-10-05T11:14:52.475Z,56.02
2022-10-05T11:18:10.251Z,55.87
2022-10-05T11:21:31.823Z,55.12
2022-10-05T11:24:50.253Z,55.24
2022-10-05T11:28:15.218Z,54.85
2022-10-05T11:31:37.441Z,55.52
2022-10-05T11:35:01.755Z,55.32
2022-10-05T11:38:21.689Z,54.18
2022-10-05T11:41:42.847Z,54.63
2022-10-05T11:45:23.164Z,54.89
2022-10-05T11:48:55.502Z,53.65
2022-10-05T11:52:34.142Z,54.92
2022-10-05T11:55:49.817Z,55.11
2022-10-05T11:59:31.397Z,54.50
2022-10-05T12:02:58.408Z,54.72
2022-10-05T12:06:23.421Z,55.25
2022-10-05T12:09:38.674Z,54.84
2022-10-05T12:13:02.653Z,55.88
2022-10-05T12:16:10.783Z,55.91
2022-10-05T12:19:19.044Z,55.64
2022-10-05T12:22:33.184Z,54.96
2022-10-05T12:25:58.756Z,54.59
2022-10-05T12:29:10.358Z,55.27
2022-10-05T12:32:19.112Z,55.63
2022-10-05T12:35:49.510Z,55.56
2022-10-05T12:38:54.796Z,56.07
2022-10-05T12:42:26.059Z,55.78
2022-10-05T12:45:53.688Z,54.28
2022-10-05T12:49:13.244Z,55.07
2022-10-05T12:53:01.894Z,54.59
2022-10-05T12:56:10.314Z,53.96
2022-10-05T12:59:22.138Z,54.08
2022-10-05T13:02:39.231Z,54.19
2022-10-05T13:06:02.741Z,54.61
2022-10-05T13:09:28.966Z,55.31
2022-10-05T13:13:05.540Z,55.66
2022-10-05T13:16:11.250Z,55.41
2022-10-05T13:19:32.692Z,54.68
2022-10-05T13:22:43.921Z,54.72
2022-10-05T13:26:07.832Z,54.56
2022-10-05T13:29:54.323Z,53.62
2022-10-05T13:32:57.978Z,54.01
2022-10-05T13:36:03.567Z,53.05
2022-10-05T13:39:37.551Z,53.82
2022-10-05T13:42:44.674Z,53.36
2022-10-05T13:45:57.005Z,53.57
2022-10-05T13:49:07.106Z,54.48
2022-10-05T13:52:30.932Z,54.32
2022-10-05T13:55:54.729Z,53.86
2022-10-05T13:59:30.432Z,54.22
2022-10-05T14:02:43.982Z,54.85
2022-10-05T14:05:56.407Z,54.95
2022-10-05T14:09:00.442Z,54.22
2022-10-05T14:12:03.260Z,55.77
2022-10-05T14:15:30.523Z,56.05
2022-10-05T14:18:37.221Z,55.94
2022-10-05T14:22:02.919Z,56.18
2022-10-05T14:25:08.618Z,56.22
2022-10-05T14:28:29.513Z,55.99
2022-10-05T14:31:37.196Z,55.73
2022-10-05T14:34:57.374Z,55.35
2022-10-05T14:38:02.815Z,56.77
2022-10-05T14:41:19.350Z,56.37
2022-10-05T14:47:50.485Z,57.37
2022-10-05T14:50:59.555Z,56.85
2022-10-05T14:54:14.937Z,56.42
2022-10-05T14:57:25.295Z,55.99
2022-10-05T15:00:28.845Z,55.94
2022-10-05T15:03:57.790Z,55.93
2022-10-05T15:07:31.242Z,56.31
2022-10-05T15:10:43.425Z,56.66
2022-10-05T15:13:48.633Z,56.23
2022-10-05T15:17:02.540Z,56.36
2022-10-05T15:20:24.633Z,56.26
2022-10-05T15:23:35.774Z,57.13
2022-10-05T15:26:59.198Z,57.92
2022-10-05T15:30:11.833Z,57.82
2022-10-05T15:33:28.830Z,58.16
2022-10-05T15:36:54.552Z,58.54
2022-10-05T15:40:00.141Z,58.82
2022-10-05T15:43:20.192Z,59.24
2022-10-05T15:46:34.199Z,59.53
2022-10-05T15:50:04.767Z,59.71
2022-10-05T15:53:13.644Z,60.05
2022-10-05T15:56:23.621Z,60.03
2022-10-05T16:00:00.392Z,60.57
2022-10-05T16:03:26.225Z,60.55
2022-10-05T16:06:59.481Z,60.80
2022-10-05T16:10:21.476Z,61.23
2022-10-05T16:13:36.002Z,61.78
2022-10-05T16:16:47.835Z,62.82
2022-10-05T16:19:59.723Z,62.80
2022-10-05T16:23:14.075Z,62.98
2022-10-05T16:26:32.695Z,63.24
2022-10-05T16:29:50.608Z,63.46
2022-10-05T16:33:15.973Z,64.31
2022-10-05T16:36:40.124Z,64.24
2022-10-05T16:39:52.057Z,64.95
2022-10-05T16:43:00.884Z,64.57
2022-10-05T16:46:22.414Z,64.90
2022-10-05T16:49:31.487Z,64.84
2022-10-05T16:52:37.415Z,65.27
2022-10-05T16:55:45.437Z,65.00
2022-10-05T16:59:44.090Z,65.28
2022-10-05T17:03:10.286Z,65.72
2022-10-05T17:06:36.991Z,65.77
2022-10-05T17:10:01.314Z,66.26
2022-10-05T17:13:16.401Z,66.32
2022-10-05T17:16:30.640Z,66.54
2022-10-05T17:19:34.266Z,66.97
2022-10-05T17:22:59.142Z,67.17
2022-10-05T17:26:22.712Z,67.31
2022-10-05T17:29:54.734Z,67.55
2022-10-05T17:33:14.189Z,67.77
2022-10-05T17:36:18.734Z,68.29
2022-10-05T17:39:23.484Z,68.58
2022-10-05T17:42:31.823Z,68.92
2022-10-05T17:45:34.574Z,69.54
2022-10-05T17:48:49.148Z,69.33
2022-10-05T17:52:10.364Z,69.57
2022-10-05T17:55:27.028Z,69.68
2022-10-05T17:58:29.820Z,70.19
2022-10-05T18:01:33.947Z,70.48
2022-10-05T18:04:42.168Z,70.74
2022-10-05T18:08:10.366Z,70.80
2022-10-05T18:11:28.461Z,70.97
2022-10-05T18:14:50.497Z,71.29
2022-10-05T18:17:59.639Z,71.43
2022-10-05T18:21:14.698Z,71.58
2022-10-05T18:24:25.344Z,71.57
2022-10-05T18:27:50.406Z,71.98
2022-10-05T18:31:32.342Z,71.99
2022-10-05T18:34:45.339Z,72.06
2022-10-05T18:37:55.484Z,72.30
2022-10-05T18:41:12.827Z,72.44
2022-10-05T18:45:00.576Z,72.41
2022-10-05T18:48:06.706Z,72.82
2022-10-05T18:51:36.761Z,73.08
2022-10-05T18:55:06.139Z,73.58
2022-10-05T18:58:11.201Z,73.53
2022-10-05T19:01:28.000Z,73.98
2022-10-05T19:04:43.488Z,74.02
2022-10-05T19:08:01.700Z,74.03
2022-10-05T19:11:04.900Z,74.18
2022-10-05T19:14:45.367Z,74.03
2022-10-05T19:18:06.654Z,74.27
2022-10-05T19:21:18.590Z,74.23
2022-10-05T19:24:55.126Z,74.40
2022-10-05T19:28:17.266Z,74.48
2022-10-05T19:31:29.533Z,74.54
2022-10-05T19:34:44.962Z,74.60
2022-10-05T19:38:03.595Z,74.85
2022-10-05T19:41:12.271Z,75.12
2022-10-05T19:44:38.411Z,74.95
2022-10-05T19:47:52.998Z,75.05
2022-10-05T19:50:58.548Z,75.39
2022-10-05T19:54:03.388Z,75.30
2022-10-05T19:57:17.108Z,75.54
2022-10-05T20:00:25.611Z,75.88
2022-10-05T20:03:30.366Z,75.74
2022-10-05T20:06:33.748Z,75.69
2022-10-05T20:10:02.212Z,75.88
2022-10-05T20:13:08.596Z,75.85
2022-10-05T20:16:36.265Z,75.92
2022-10-05T20:19:54.509Z,76.06
2022-10-05T20:23:21.082Z,76.12
2022-10-05T20:27:02.421Z,76.11
2022-10-05T20:30:06.393Z,76.16
2022-10-05T20:33:14.637Z,76.19
2022-10-05T20:36:17.381Z,76.39
2022-10-05T20:39:21.330Z,76.43
2022-10-05T20:42:24.217Z,76.91
2022-10-05T20:45:26.760Z,76.59
2022-10-05T20:48:29.971Z,76.47
2022-10-05T20:51:32.825Z,76.42
2022-10-05T20:54:36.777Z,76.97
2022-10-05T20:57:42.236Z,76.81
2022-10-05T21:01:06.145Z,76.70
2022-10-05T21:04:09.639Z,76.76
2022-10-05T21:07:12.451Z,76.27
2022-10-05T21:10:15.190Z,76.71
2022-10-05T21:13:18.464Z,76.87
2022-10-05T21:16:21.113Z,77.27
2022-10-05T21:19:23.925Z,76.95
2022-10-05T21:22:26.379Z,76.99
2022-10-05T21:25:29.273Z,76.85
2022-10-05T21:28:32.344Z,76.83
2022-10-05T21:31:35.569Z,76.94
2022-10-05T21:34:38.832Z,77.35
2022-10-05T21:37:41.694Z,77.03
2022-10-05T21:40:46.123Z,76.91
2022-10-05T21:43:49.275Z,76.91
2022-10-05T21:46:51.991Z,76.99
2022-10-05T21:49:54.890Z,76.82
2022-10-05T21:52:58.869Z,76.82
2022-10-05T21:56:03.413Z,77.14
2022-10-05T21:59:09.588Z,76.98
2022-10-05T22:02:12.400Z,77.11
2022-10-05T22:05:15.594Z,77.25
2022-10-05T22:08:24.563Z,77.59
2022-10-05T22:11:28.998Z,77.51
2022-10-05T22:14:32.182Z,77.82
2022-10-05T22:17:35.886Z,77.91
2022-10-05T22:20:38.522Z,77.96
2022-10-05T22:23:42.658Z,78.11
2022-10-05T22:26:47.254Z,78.20
2022-10-05T22:29:51.385Z,78.30
2022-10-05T22:32:53.955Z,78.30
2022-10-05T22:36:00.285Z,78.57
2022-10-05T22:39:03.667Z,78.66
2022-10-05T22:42:06.981Z,78.75
2022-10-05T22:45:09.691Z,78.80
2022-10-05T22:48:12.723Z,78.98
2022-10-05T22:51:15.892Z,79.28
2022-10-05T22:58:54.818Z,79.17
2022-10-05T23:01:58.340Z,79.17
2022-10-05T23:05:00.982Z,79.11
2022-10-05T23:08:03.998Z,79.18
2022-10-05T23:11:18.386Z,79.23
2022-10-05T23:14:21.329Z,79.25
2022-10-05T23:17:23.899Z,79.40
2022-10-05T23:20:26.970Z,79.51
2022-10-05T23:23:29.552Z,79.52
2022-10-05T23:26:33.465Z,79.60
2022-10-05T23:29:35.975Z,79.64
2022-10-05T23:32:43.484Z,79.58
2022-10-05T23:35:46.033Z,79.56
2022-10-05T23:38:49.158Z,79.82
2022-10-05T23:41:51.751Z,79.97
2022-10-05T23:44:54.500Z,79.95
2022-10-05T23:47:56.970Z,79.85
2022-10-05T23:51:00.197Z,79.94
2022-10-05T23:54:02.681Z,79.90
2022-10-05T23:57:05.433Z,79.97
